Time;durP1;ratioP1;P1;durP2;ratioP2;P2;SDS_P1;SDS_P2;PMS_P1;PMS_P2;Temp;Humidity;BMP_temperature;BMP_pressure;BME280_temperature;BME280_humidity;BME280_pressure;Samples;Min_cycle;Max_cycle;Signal;HPM_P1;HPM_P2
2021/03/11 00:02:27;;;;;;;23.58;13.30;;;5.30;91.30;;;;;;5020930;28;20067;-66
2021/03/11 00:05:32;;;;;;;22.15;13.05;;;5.40;91.90;;;;;;5031629;28;20056;-66
2021/03/11 00:08:37;;;;;;;24.42;12.65;;;5.40;91.80;;;;;;5022795;28;20052;-67
2021/03/11 00:11:41;;;;;;;26.00;13.93;;;5.60;91.50;;;;;;5019660;28;20506;-66
2021/03/11 00:14:45;;;;;;;22.38;12.52;;;5.70;91.30;;;;;;5031873;28;20403;-65
2021/03/11 00:17:50;;;;;;;30.35;14.27;;;5.70;91.40;;;;;;5032183;28;20044;-67
2021/03/11 00:20:55;;;;;;;22.88;13.45;;;5.70;91.50;;;;;;5032055;28;20052;-66
2021/03/11 00:23:59;;;;;;;26.65;14.05;;;5.60;91.70;;;;;;5031059;28;20040;-67
2021/03/11 00:27:05;;;;;;;23.52;12.93;;;5.50;92.20;;;;;;5019963;28;20041;-66
2021/03/11 00:30:10;;;;;;;26.42;12.50;;;5.40;92.70;;;;;;5032130;28;20436;-64
2021/03/11 00:33:14;;;;;;;26.20;14.00;;;5.30;93.20;;;;;;5032265;28;21861;-67
2021/03/11 00:36:18;;;;;;;24.48;13.65;;;5.30;93.50;;;;;;5031187;28;20039;-67
2021/03/11 00:39:22;;;;;;;28.42;13.70;;;5.30;93.90;;;;;;5023678;28;20052;-65
2021/03/11 00:42:26;;;;;;;27.17;13.20;;;5.30;94.10;;;;;;5020635;28;20053;-66
2021/03/11 00:45:31;;;;;;;23.13;13.65;;;5.30;94.20;;;;;;5030121;28;20293;-66
2021/03/11 00:48:35;;;;;;;24.17;13.50;;;5.20;94.30;;;;;;5031785;28;20052;-65
2021/03/11 00:51:40;;;;;;;23.58;14.10;;;5.10;94.80;;;;;;5030772;28;20061;-65
2021/03/11 00:54:46;;;;;;;28.85;15.25;;;5.10;95.30;;;;;;5031059;28;20040;-67
2021/03/11 00:57:52;;;;;;;28.83;14.68;;;4.90;96.00;;;;;;5031593;28;20045;-65
2021/03/11 01:01:04;;;;;;;26.13;13.82;;;4.70;96.60;;;;;;5030237;28;20052;-67
2021/03/11 01:04:16;;;;;;;31.92;14.80;;;4.50;97.60;;;;;;5030403;28;20072;-65
2021/03/11 01:07:20;;;;;;;22.98;13.25;;;4.40;98.60;;;;;;5029971;28;20049;-67
2021/03/11 01:10:25;;;;;;;25.35;14.88;;;4.30;99.40;;;;;;5031759;28;20049;-66
2021/03/11 01:13:30;;;;;;;33.45;15.77;;;4.10;99.90;;;;;;5030882;28;20117;-67
2021/03/11 01:16:35;;;;;;;32.97;17.42;;;4.00;99.90;;;;;;5030319;28;20048;-67
2021/03/11 01:19:39;;;;;;;28.13;16.75;;;3.90;99.90;;;;;;5031035;28;20053;-66
2021/03/11 01:22:43;;;;;;;28.02;16.42;;;3.90;99.90;;;;;;5030997;28;20053;-65
2021/03/11 01:25:48;;;;;;;24.92;15.50;;;3.90;99.90;;;;;;5030424;28;20040;-67
2021/03/11 01:28:52;;;;;;;26.65;15.00;;;3.80;99.90;;;;;;5031065;28;20060;-65
2021/03/11 01:31:56;;;;;;;32.03;16.92;;;3.80;99.90;;;;;;5017433;28;20039;-65
2021/03/11 01:35:01;;;;;;;30.52;15.48;;;3.80;99.90;;;;;;5030671;28;20053;-67
2021/03/11 01:38:06;;;;;;;26.95;15.77;;;3.90;99.90;;;;;;5030907;28;20060;-66
2021/03/11 01:41:10;;;;;;;31.75;17.98;;;4.10;99.90;;;;;;5030445;28;20048;-66
2021/03/11 01:44:14;;;;;;;35.90;18.15;;;4.10;99.90;;;;;;5030707;28;20044;-65
2021/03/11 01:47:18;;;;;;;32.47;16.27;;;4.10;99.90;;;;;;5016966;28;20044;-65
2021/03/11 01:50:23;;;;;;;26.88;15.57;;;4.10;99.90;;;;;;5030701;28;20044;-67
2021/03/11 01:53:29;;;;;;;26.90;16.05;;;4.20;99.90;;;;;;5030458;28;20037;-66
2021/03/11 01:56:34;;;;;;;29.80;16.60;;;4.20;99.90;;;;;;5029755;28;20070;-67
2021/03/11 01:59:39;;;;;;;30.35;16.88;;;4.00;99.90;;;;;;5030628;28;20423;-66
2021/03/11 02:02:44;;;;;;;33.28;17.05;;;3.90;99.90;;;;;;5018057;28;20036;-66
2021/03/11 02:05:49;;;;;;;28.50;17.33;;;3.90;99.90;;;;;;5028954;28;20509;-65
2021/03/11 02:08:52;;;;;;;33.33;19.05;;;3.80;99.90;;;;;;5026691;28;20040;-66
2021/03/11 02:12:08;;;;;;;33.40;18.90;;;3.60;99.90;;;;;;5035239;28;20044;-66
2021/03/11 02:15:32;;;;;;;27.05;17.15;;;3.60;99.90;;;;;;5015934;28;20538;-65
2021/03/11 02:18:55;;;;;;;31.35;17.10;;;3.60;99.90;;;;;;5030749;28;20103;-64
2021/03/11 02:22:39;;;;;;;33.33;17.77;;;3.70;99.90;;;;;;5030821;28;20072;-66
2021/03/11 02:25:49;;;;;;;28.35;16.75;;;3.70;99.90;;;;;;5032500;28;20104;-67
2021/03/11 02:29:03;;;;;;;32.97;18.63;;;3.80;99.90;;;;;;5030320;28;20032;-67
2021/03/11 02:32:10;;;;;;;31.17;16.75;;;3.80;99.90;;;;;;5019260;28;20061;-67
2021/03/11 02:35:17;;;;;;;30.58;17.17;;;3.80;99.90;;;;;;5009034;28;20048;-65
2021/03/11 02:38:23;;;;;;;32.22;18.33;;;3.80;99.90;;;;;;5015840;28;20048;-66
2021/03/11 02:41:28;;;;;;;37.28;17.95;;;3.80;99.90;;;;;;5028442;28;20037;-67
2021/03/11 02:44:32;;;;;;;29.08;17.95;;;3.60;99.90;;;;;;5030205;28;20048;-67
2021/03/11 02:47:38;;;;;;;26.00;16.77;;;3.50;99.90;;;;;;5029411;28;20052;-67
2021/03/11 02:50:43;;;;;;;33.60;17.95;;;3.50;99.90;;;;;;5026584;28;20045;-67
2021/03/11 02:53:49;;;;;;;29.08;17.38;;;3.60;99.90;;;;;;5016957;28;20044;-64
2021/03/11 02:56:55;;;;;;;32.35;18.33;;;3.60;99.90;;;;;;5028876;28;20045;-67
2021/03/11 03:00:05;;;;;;;29.00;17.60;;;3.60;99.90;;;;;;5028573;28;20132;-67
2021/03/11 03:03:13;;;;;;;29.92;17.10;;;3.70;99.90;;;;;;5021438;28;20543;-67
2021/03/11 03:06:19;;;;;;;28.08;17.38;;;3.70;99.90;;;;;;5018761;28;20511;-66
2021/03/11 03:09:23;;;;;;;25.15;16.20;;;3.70;99.90;;;;;;5019896;28;20048;-67
2021/03/11 03:12:28;;;;;;;29.13;16.80;;;3.70;99.90;;;;;;5017263;28;20056;-65
2021/03/11 03:15:32;;;;;;;24.10;15.00;;;3.70;99.90;;;;;;5029027;28;20514;-65
2021/03/11 03:18:37;;;;;;;28.88;15.55;;;3.70;99.90;;;;;;5028540;28;20052;-64
2021/03/11 03:21:45;;;;;;;27.67;14.98;;;3.70;99.90;;;;;;5029216;28;20036;-64
2021/03/11 03:24:49;;;;;;;25.73;14.95;;;3.80;99.90;;;;;;5023611;28;20048;-66
2021/03/11 03:27:53;;;;;;;29.23;14.85;;;3.80;99.90;;;;;;5020326;28;20048;-66
2021/03/11 03:30:58;;;;;;;23.95;14.52;;;3.80;99.90;;;;;;5033134;28;20044;-66
2021/03/11 03:34:03;;;;;;;27.90;15.77;;;3.90;99.90;;;;;;5032200;28;20518;-67
2021/03/11 03:37:07;;;;;;;32.00;16.48;;;3.80;99.90;;;;;;5032726;28;20044;-67
2021/03/11 03:40:13;;;;;;;30.58;15.15;;;3.70;99.90;;;;;;5032919;28;20944;-66
2021/03/11 03:43:32;;;;;;;30.50;16.50;;;3.60;99.90;;;;;;5021583;28;20044;-66
2021/03/11 03:46:39;;;;;;;26.52;15.88;;;3.60;99.90;;;;;;5020589;28;20037;-66
2021/03/11 03:49:44;;;;;;;31.70;17.13;;;3.50;99.90;;;;;;5032902;28;20048;-64
2021/03/11 03:52:50;;;;;;;25.52;15.25;;;3.50;99.90;;;;;;5032799;28;20052;-66
2021/03/11 03:55:59;;;;;;;27.60;16.63;;;3.40;99.90;;;;;;5032751;28;20048;-67
2021/03/11 03:59:08;;;;;;;33.78;16.88;;;3.50;99.90;;;;;;5031510;28;20059;-66
2021/03/11 04:02:14;;;;;;;29.17;15.75;;;3.60;99.90;;;;;;5032820;28;20057;-67
2021/03/11 04:05:19;;;;;;;26.48;15.88;;;3.70;99.90;;;;;;5019924;28;20514;-66
2021/03/11 04:08:26;;;;;;;27.08;17.35;;;3.70;99.90;;;;;;5032250;28;20041;-66
2021/03/11 04:11:32;;;;;;;28.73;17.60;;;3.30;99.90;;;;;;5032176;28;20060;-65
2021/03/11 04:14:38;;;;;;;35.38;16.77;;;2.90;99.90;;;;;;5032512;28;20052;-66
2021/03/11 04:17:43;;;;;;;36.28;20.20;;;2.70;99.90;;;;;;5019063;28;20049;-66
2021/03/11 04:20:48;;;;;;;33.05;17.90;;;2.60;99.90;;;;;;5032144;28;20037;-65
2021/03/11 04:23:53;;;;;;;29.75;17.27;;;2.70;99.90;;;;;;5032081;28;20045;-64
2021/03/11 04:27:02;;;;;;;32.15;19.38;;;2.60;99.90;;;;;;5032234;28;20041;-65
2021/03/11 04:30:07;;;;;;;31.63;18.38;;;2.60;99.90;;;;;;5032112;28;20045;-66
2021/03/11 04:33:13;;;;;;;32.60;19.30;;;2.60;99.90;;;;;;5032216;28;20052;-66
2021/03/11 04:36:19;;;;;;;31.50;17.50;;;2.60;99.90;;;;;;5017993;28;20554;-66
2021/03/11 04:39:24;;;;;;;35.38;19.80;;;2.60;99.90;;;;;;5031632;28;20033;-66
2021/03/11 04:42:28;;;;;;;32.25;18.60;;;2.50;99.90;;;;;;5031467;28;20064;-66
2021/03/11 04:45:34;;;;;;;29.17;17.65;;;2.50;99.90;;;;;;5031864;28;20041;-67
2021/03/11 04:48:38;;;;;;;32.55;17.48;;;2.40;99.90;;;;;;5031422;28;20045;-67
2021/03/11 04:51:43;;;;;;;36.95;16.77;;;2.40;99.90;;;;;;5019864;28;20412;-66
2021/03/11 04:54:48;;;;;;;35.42;17.50;;;2.40;99.90;;;;;;5031781;28;20048;-66
2021/03/11 04:57:53;;;;;;;32.42;16.88;;;2.50;99.90;;;;;;5031154;28;20040;-65
2021/03/11 05:01:01;;;;;;;33.10;18.00;;;2.50;99.90;;;;;;5020120;28;20052;-66
2021/03/11 05:04:06;;;;;;;31.67;17.23;;;2.50;99.90;;;;;;5031511;28;20049;-67
2021/03/11 05:07:14;;;;;;;28.00;16.48;;;2.50;99.90;;;;;;5031391;28;20518;-67
2021/03/11 05:10:18;;;;;;;30.35;16.38;;;2.50;99.90;;;;;;5018152;28;20053;-66
2021/03/11 05:13:22;;;;;;;28.85;17.20;;;2.60;99.90;;;;;;5031205;28;20053;-66
2021/03/11 05:16:26;;;;;;;31.23;17.35;;;2.60;99.90;;;;;;5031200;28;20049;-67
2021/03/11 05:19:30;;;;;;;30.23;17.23;;;2.60;99.90;;;;;;5019227;28;20037;-67
2021/03/11 05:22:34;;;;;;;33.45;18.55;;;2.70;99.90;;;;;;5031254;28;20048;-66
2021/03/11 05:25:38;;;;;;;30.65;16.50;;;2.60;99.90;;;;;;5031134;28;20538;-67
2021/03/11 05:28:42;;;;;;;29.40;15.35;;;2.70;99.90;;;;;;5030427;28;20127;-66
2021/03/11 05:31:46;;;;;;;25.88;14.43;;;2.70;99.90;;;;;;5030958;28;20514;-66
2021/03/11 05:34:50;;;;;;;28.17;14.75;;;2.80;99.90;;;;;;5031101;28;20048;-67
2021/03/11 05:37:56;;;;;;;25.92;14.55;;;2.80;99.90;;;;;;5017381;28;20057;-66
2021/03/11 05:41:01;;;;;;;27.98;15.30;;;2.90;99.90;;;;;;5030565;28;20052;-65
2021/03/11 05:44:07;;;;;;;27.15;14.80;;;2.90;99.90;;;;;;5030718;28;20042;-66
2021/03/11 05:47:15;;;;;;;22.85;13.48;;;3.00;99.90;;;;;;5029300;28;20045;-67
2021/03/11 05:50:20;;;;;;;23.13;13.82;;;2.90;99.90;;;;;;5030611;28;20400;-66
2021/03/11 05:53:24;;;;;;;28.90;13.68;;;2.90;99.90;;;;;;5018543;28;20049;-66
2021/03/11 05:56:30;;;;;;;22.05;11.82;;;3.00;99.90;;;;;;5030439;28;20044;-66
2021/03/11 05:59:35;;;;;;;23.13;12.63;;;3.00;99.90;;;;;;5024286;28;20048;-67
2021/03/11 06:02:40;;;;;;;22.42;12.77;;;3.10;99.90;;;;;;5042208;28;20044;-67
2021/03/11 06:05:44;;;;;;;24.73;13.13;;;3.10;99.90;;;;;;5026599;28;20518;-66
2021/03/11 06:08:56;;;;;;;23.35;12.90;;;3.10;99.90;;;;;;5030503;28;20044;-65
2021/03/11 06:12:01;;;;;;;23.37;13.33;;;3.20;99.90;;;;;;5030351;28;20056;-67
2021/03/11 06:15:14;;;;;;;23.02;13.32;;;3.40;99.90;;;;;;5030272;28;20068;-66
2021/03/11 06:18:19;;;;;;;20.42;11.75;;;3.50;99.90;;;;;;5023020;28;20070;-67
2021/03/11 06:21:24;;;;;;;21.45;12.18;;;3.60;99.90;;;;;;5009229;28;20052;-67
2021/03/11 06:24:29;;;;;;;25.00;13.38;;;3.60;99.90;;;;;;4988539;28;20044;-66
2021/03/11 06:27:34;;;;;;;21.70;13.02;;;3.60;99.90;;;;;;4990189;28;20048;-67
2021/03/11 06:30:40;;;;;;;25.05;13.30;;;3.50;99.90;;;;;;5026587;28;20036;-66
2021/03/11 06:33:45;;;;;;;23.15;13.60;;;3.50;99.90;;;;;;5024518;28;20044;-67
2021/03/11 06:36:49;;;;;;;22.83;13.32;;;3.70;99.90;;;;;;5029432;28;20528;-67
2021/03/11 06:39:53;;;;;;;22.17;13.10;;;3.70;99.90;;;;;;5019573;28;20048;-65
2021/03/11 06:43:12;;;;;;;24.42;14.20;;;3.80;99.90;;;;;;5017053;28;20044;-67
2021/03/11 06:46:16;;;;;;;25.88;14.32;;;3.70;99.90;;;;;;5015760;28;20040;-66
2021/03/11 06:49:20;;;;;;;25.02;13.25;;;3.50;99.90;;;;;;5028058;28;20514;-67
2021/03/11 06:52:25;;;;;;;28.38;14.77;;;3.60;99.90;;;;;;5022350;28;20044;-67
2021/03/11 06:55:31;;;;;;;25.50;14.88;;;3.50;99.90;;;;;;5002673;28;20048;-66
2021/03/11 06:58:37;;;;;;;24.58;14.90;;;3.50;99.90;;;;;;5012109;28;21202;-67
2021/03/11 07:01:52;;;;;;;30.70;15.07;;;3.80;99.90;;;;;;5023081;28;20049;-67
2021/03/11 07:05:11;;;;;;;28.40;14.73;;;4.20;99.90;;;;;;5024754;28;20052;-67
2021/03/11 07:08:19;;;;;;;27.20;15.10;;;4.30;99.90;;;;;;5028837;28;20052;-67
2021/03/11 07:11:25;;;;;;;23.52;15.38;;;4.20;99.90;;;;;;5036437;28;20578;-66
2021/03/11 07:14:29;;;;;;;27.40;15.32;;;4.20;99.90;;;;;;5029878;28;20052;-67
2021/03/11 07:17:36;;;;;;;27.30;16.13;;;3.90;99.90;;;;;;5025172;28;20068;-66
2021/03/11 07:20:40;;;;;;;26.55;16.40;;;3.70;99.90;;;;;;5030498;28;20124;-66
2021/03/11 07:23:49;;;;;;;27.17;15.80;;;3.70;99.90;;;;;;5022882;28;20064;-66
2021/03/11 07:26:58;;;;;;;22.95;14.50;;;3.90;99.90;;;;;;5033303;28;20403;-66
2021/03/11 07:30:04;;;;;;;24.63;13.60;;;4.30;99.90;;;;;;5036375;28;20044;-66
2021/03/11 07:33:09;;;;;;;22.70;14.40;;;4.70;99.90;;;;;;5029731;28;20036;-67
2021/03/11 07:36:14;;;;;;;23.08;15.07;;;5.20;99.90;;;;;;5025663;28;20427;-67
2021/03/11 07:39:35;;;;;;;24.23;14.40;;;5.50;99.90;;;;;;5018010;28;20037;-67
2021/03/11 07:42:41;;;;;;;23.30;14.43;;;6.10;99.90;;;;;;5016627;28;20044;-67
2021/03/11 07:46:00;;;;;;;26.15;14.45;;;6.50;99.90;;;;;;5015196;28;20040;-66
2021/03/11 07:49:06;;;;;;;23.73;14.30;;;6.60;99.90;;;;;;5015794;28;20048;-67
2021/03/11 07:52:11;;;;;;;24.83;15.02;;;6.40;99.90;;;;;;5013096;28;20045;-67
2021/03/11 07:55:15;;;;;;;25.33;14.80;;;6.40;99.90;;;;;;5019773;28;20056;-65
2021/03/11 07:58:23;;;;;;;27.77;15.40;;;6.50;99.90;;;;;;5011862;28;20335;-66
2021/03/11 08:01:27;;;;;;;28.50;15.60;;;6.60;99.90;;;;;;5010066;28;20412;-66
2021/03/11 08:04:35;;;;;;;31.05;17.65;;;6.40;99.90;;;;;;5010601;28;20037;-65
2021/03/11 08:07:39;;;;;;;29.67;19.00;;;7.30;99.90;;;;;;5017941;28;20041;-67
2021/03/11 08:10:27;;;;;;;31.92;19.75;;;8.90;99.90;;;;;;5095983;27;20360;-66
2021/03/11 08:13:39;;;;;;;24.85;14.93;;;9.70;99.90;;;;;;5085812;28;20028;-67
2021/03/11 08:16:43;;;;;;;26.05;14.70;;;8.10;99.90;;;;;;5077294;28;20054;-67
2021/03/11 08:19:48;;;;;;;25.90;15.75;;;8.90;99.90;;;;;;5065546;28;20037;-68
2021/03/11 08:25:57;;;;;;;24.85;15.90;;;12.10;99.90;;;;;;5050958;28;20059;-68
2021/03/11 08:29:21;;;;;;;25.45;15.20;;;11.40;99.90;;;;;;5059955;28;20505;-68
2021/03/11 08:32:51;;;;;;;24.10;15.00;;;11.60;99.70;;;;;;5055540;28;20048;-68
2021/03/11 08:36:03;;;;;;;24.23;16.13;;;11.80;99.30;;;;;;5054859;28;20044;-68
2021/03/11 08:39:30;;;;;;;28.60;17.65;;;11.80;99.30;;;;;;5064246;28;20039;-68
2021/03/11 08:42:47;;;;;;;26.33;15.85;;;12.00;98.70;;;;;;5054373;28;20051;-68
2021/03/11 08:45:52;;;;;;;26.75;16.83;;;11.60;99.00;;;;;;5043826;28;20055;-68
2021/03/11 08:49:00;;;;;;;24.80;16.95;;;12.10;99.00;;;;;;5049449;28;20517;-68
2021/03/11 08:52:05;;;;;;;25.88;17.27;;;13.00;98.20;;;;;;5052297;28;20357;-68
2021/03/11 08:55:40;;;;;;;32.53;18.88;;;13.90;97.50;;;;;;5041325;28;21178;-68
2021/03/11 08:58:53;;;;;;;24.42;15.80;;;13.30;97.80;;;;;;5045074;28;20052;-68
2021/03/11 09:01:57;;;;;;;30.75;18.65;;;13.00;97.80;;;;;;5046543;28;20043;-68
2021/03/11 09:05:04;;;;;;;31.20;19.98;;;14.10;97.30;;;;;;5037001;28;20047;-68
2021/03/11 09:08:11;;;;;;;31.17;20.58;;;14.40;96.70;;;;;;5047528;28;20048;-68
2021/03/11 09:11:21;;;;;;;39.00;23.48;;;16.10;95.70;;;;;;5045495;28;20032;-66
2021/03/11 09:14:27;;;;;;;27.10;17.35;;;18.30;93.90;;;;;;5050125;28;20047;-68
2021/03/11 09:17:34;;;;;;;27.23;17.77;;;15.50;93.00;;;;;;5051268;28;20048;-68
2021/03/11 09:20:38;;;;;;;32.47;22.45;;;15.50;93.30;;;;;;5046760;28;20056;-69
2021/03/11 09:23:43;;;;;;;35.33;22.50;;;17.10;92.10;;;;;;5039121;28;20055;-68
2021/03/11 09:26:47;;;;;;;32.28;22.60;;;18.50;91.00;;;;;;5036254;28;20391;-68
2021/03/11 09:29:53;;;;;;;25.60;18.63;;;18.90;88.20;;;;;;5039579;28;20616;-68
2021/03/11 09:33:07;;;;;;;28.17;19.65;;;20.00;85.00;;;;;;5040511;28;20079;-68
2021/03/11 09:36:15;;;;;;;25.75;16.20;;;23.00;78.50;;;;;;5037589;28;20609;-68
2021/03/11 09:39:21;;;;;;;16.08;11.63;;;25.40;71.90;;;;;;5039438;28;20060;-69
2021/03/11 09:42:25;;;;;;;15.52;9.43;;;27.20;68.20;;;;;;5037202;28;20052;-67
2021/03/11 09:45:46;;;;;;;14.93;8.80;;;28.30;63.70;;;;;;5031584;28;20096;-68
2021/03/11 09:48:53;;;;;;;15.32;8.85;;;27.20;61.30;;;;;;5044293;28;20438;-68
2021/03/11 09:52:05;;;;;;;19.02;12.15;;;26.50;62.00;;;;;;5043923;28;20420;-68
2021/03/11 09:55:10;;;;;;;13.27;8.93;;;22.50;63.80;;;;;;5036051;28;20517;-68
2021/03/11 09:58:19;;;;;;;11.50;7.80;;;23.90;65.20;;;;;;5048478;28;20214;-68
2021/03/11 10:01:30;;;;;;;16.25;8.32;;;25.20;64.10;;;;;;5048950;28;20510;-68
2021/03/11 10:04:35;;;;;;;12.50;9.13;;;27.40;61.50;;;;;;5047862;28;20123;-68
2021/03/11 10:07:39;;;;;;;22.38;13.52;;;26.50;59.90;;;;;;5049894;28;20040;-68
2021/03/11 10:11:00;;;;;;;20.17;14.50;;;24.20;59.70;;;;;;5049093;28;20557;-68
2021/03/11 10:14:14;;;;;;;20.25;15.23;;;21.80;64.20;;;;;;5034069;28;20056;-67
2021/03/11 10:17:19;;;;;;;24.67;12.77;;;22.60;64.30;;;;;;5040123;28;20039;-67
2021/03/11 10:20:28;;;;;;;19.40;12.32;;;19.80;67.90;;;;;;5040231;28;20060;-67
2021/03/11 10:23:34;;;;;;;16.58;9.95;;;20.40;69.10;;;;;;5033591;28;20052;-67
2021/03/11 10:26:40;;;;;;;16.02;10.02;;;20.50;68.60;;;;;;5038495;28;20055;-67
2021/03/11 10:29:44;;;;;;;17.30;11.02;;;21.00;68.30;;;;;;5045910;28;20064;-67
2021/03/11 10:33:00;;;;;;;17.85;11.32;;;20.80;67.70;;;;;;5045464;28;20036;-68
2021/03/11 10:36:13;;;;;;;16.80;10.10;;;21.90;67.90;;;;;;5044255;28;20036;-68
2021/03/11 10:39:19;;;;;;;14.82;9.57;;;24.70;64.30;;;;;;5048416;28;20052;-68
2021/03/11 10:42:37;;;;;;;16.98;10.00;;;27.30;60.20;;;;;;5048837;28;20048;-68
2021/03/11 10:45:41;;;;;;;14.52;11.25;;;28.20;56.80;;;;;;5046251;28;20032;-68
2021/03/11 10:48:50;;;;;;;15.45;8.80;;;25.80;56.90;;;;;;5049133;28;20048;-68
2021/03/11 10:52:01;;;;;;;12.68;9.88;;;26.40;57.30;;;;;;5045794;28;20032;-68
2021/03/11 10:55:27;;;;;;;14.00;9.18;;;24.50;58.90;;;;;;5048098;28;20036;-68
2021/03/11 10:58:32;;;;;;;13.65;9.38;;;23.00;62.20;;;;;;5044879;28;20036;-69
2021/03/11 11:01:40;;;;;;;14.20;8.48;;;24.50;62.00;;;;;;5048756;28;20040;-68
2021/03/11 11:04:45;;;;;;;16.02;9.07;;;26.30;58.70;;;;;;5049651;28;20786;-68
2021/03/11 11:07:50;;;;;;;22.90;10.63;;;23.50;59.80;;;;;;5040094;28;20037;-68
2021/03/11 11:10:54;;;;;;;14.25;9.48;;;24.10;60.30;;;;;;5047279;28;20518;-68
2021/03/11 11:13:59;;;;;;;14.50;9.13;;;20.20;65.00;;;;;;5044201;28;20036;-68
2021/03/11 11:17:04;;;;;;;17.63;9.40;;;20.00;65.50;;;;;;5050715;28;20052;-67
2021/03/11 11:20:11;;;;;;;17.48;8.45;;;19.60;69.00;;;;;;5041554;28;20056;-67
2021/03/11 11:23:17;;;;;;;13.80;8.23;;;20.90;65.50;;;;;;5048294;28;20056;-67
2021/03/11 11:26:21;;;;;;;14.35;8.70;;;21.60;64.70;;;;;;5048398;28;20052;-68
2021/03/11 11:29:26;;;;;;;13.93;8.60;;;21.50;64.30;;;;;;5032562;28;20041;-68
2021/03/11 11:32:30;;;;;;;12.25;8.63;;;21.60;64.60;;;;;;5049256;28;20040;-68
2021/03/11 11:35:36;;;;;;;15.60;9.55;;;22.20;63.20;;;;;;5037390;28;20036;-67
2021/03/11 11:38:40;;;;;;;14.88;8.70;;;21.00;65.40;;;;;;5035162;28;20036;-67
2021/03/11 11:41:45;;;;;;;16.17;8.43;;;19.20;67.10;;;;;;5048760;28;20044;-67
2021/03/11 11:44:49;;;;;;;12.30;8.25;;;18.60;69.70;;;;;;5050515;28;20032;-69
2021/03/11 11:47:53;;;;;;;15.25;8.27;;;18.30;71.50;;;;;;5053325;28;20031;-68
2021/03/11 11:50:59;;;;;;;11.63;7.75;;;18.40;71.60;;;;;;5047031;28;20427;-69
2021/03/11 11:54:03;;;;;;;14.40;8.68;;;18.80;71.60;;;;;;5046925;28;20044;-69
2021/03/11 11:57:08;;;;;;;13.93;7.20;;;19.60;71.40;;;;;;5047863;28;20055;-69
2021/03/11 12:00:15;;;;;;;13.68;8.48;;;20.10;68.70;;;;;;5047054;28;20525;-68
2021/03/11 12:03:19;;;;;;;11.57;7.95;;;19.70;68.50;;;;;;5046011;28;20056;-68
2021/03/11 12:06:24;;;;;;;10.45;7.03;;;19.20;70.50;;;;;;5047234;28;20047;-68
2021/03/11 12:09:28;;;;;;;15.10;8.35;;;19.20;71.40;;;;;;5045823;28;20406;-67
2021/03/11 12:12:33;;;;;;;12.57;8.38;;;18.10;70.00;;;;;;5049289;28;20039;-68
2021/03/11 12:15:38;;;;;;;11.88;7.30;;;17.90;73.40;;;;;;5042854;28;20048;-68
2021/03/11 12:18:43;;;;;;;16.17;8.30;;;17.70;74.90;;;;;;5026213;28;20801;-66
2021/03/11 12:21:47;;;;;;;15.35;7.63;;;17.50;74.30;;;;;;5044563;28;20044;-68
2021/03/11 12:24:52;;;;;;;12.23;7.93;;;17.50;75.20;;;;;;5047375;28;20052;-67
2021/03/11 12:27:56;;;;;;;14.80;7.50;;;17.50;74.80;;;;;;5045478;28;20064;-68
2021/03/11 12:31:02;;;;;;;13.02;7.07;;;17.60;76.00;;;;;;5042507;28;20056;-68
2021/03/11 12:34:07;;;;;;;13.65;8.35;;;18.00;74.90;;;;;;5038096;28;20040;-67
2021/03/11 12:37:12;;;;;;;19.20;7.75;;;18.00;72.50;;;;;;5042816;28;20044;-67
2021/03/11 12:40:17;;;;;;;13.55;7.65;;;16.60;76.90;;;;;;5047679;28;20565;-68
2021/03/11 12:43:22;;;;;;;13.23;6.97;;;16.30;77.60;;;;;;5051396;28;20071;-68
2021/03/11 12:46:26;;;;;;;12.85;7.43;;;17.20;75.80;;;;;;5044946;28;20051;-68
2021/03/11 12:49:31;;;;;;;12.85;7.25;;;17.40;73.80;;;;;;5044485;28;20668;-67
2021/03/11 12:52:35;;;;;;;18.05;7.22;;;17.70;73.70;;;;;;5047964;28;20537;-68
2021/03/11 12:55:39;;;;;;;11.25;6.93;;;16.80;77.00;;;;;;5045342;28;20088;-68
2021/03/11 12:58:44;;;;;;;12.55;7.03;;;16.80;76.90;;;;;;5045614;28;20028;-67
2021/03/11 13:01:48;;;;;;;9.45;7.22;;;17.10;76.50;;;;;;5047972;28;20040;-68
2021/03/11 13:04:52;;;;;;;10.45;7.65;;;16.70;76.90;;;;;;5050523;28;20021;-68
2021/03/11 13:07:56;;;;;;;9.77;6.72;;;17.10;75.50;;;;;;5049035;28;20040;-68
2021/03/11 13:11:00;;;;;;;12.50;7.30;;;17.20;75.40;;;;;;5052266;28;20044;-68
2021/03/11 13:14:04;;;;;;;12.40;7.63;;;16.60;75.90;;;;;;5048738;28;20395;-67
2021/03/11 13:17:08;;;;;;;12.25;7.20;;;15.40;77.70;;;;;;5043899;28;20522;-67
2021/03/11 13:20:13;;;;;;;16.60;7.90;;;14.80;79.40;;;;;;5050043;28;20623;-67
2021/03/11 13:23:18;;;;;;;14.25;7.50;;;14.40;80.30;;;;;;5050333;28;20052;-66
2021/03/11 13:26:22;;;;;;;16.95;7.03;;;14.40;79.20;;;;;;5049538;28;20044;-67
2021/03/11 13:29:26;;;;;;;10.70;6.85;;;15.00;79.10;;;;;;5049885;28;20427;-67
2021/03/11 13:32:30;;;;;;;14.43;7.00;;;15.00;79.00;;;;;;5047911;28;20040;-68
2021/03/11 13:35:34;;;;;;;12.52;6.47;;;14.70;78.80;;;;;;5050060;28;20112;-67
2021/03/11 13:38:39;;;;;;;13.05;6.60;;;15.10;78.70;;;;;;5047586;28;20517;-67
2021/03/11 13:41:43;;;;;;;13.90;6.38;;;14.50;77.90;;;;;;5050227;28;20048;-67
2021/03/11 13:44:49;;;;;;;12.70;6.85;;;14.40;77.00;;;;;;5047995;28;20505;-67
2021/03/11 13:47:54;;;;;;;9.98;5.97;;;14.40;75.10;;;;;;5048417;28;20048;-67
2021/03/11 13:50:58;;;;;;;13.70;7.28;;;14.90;76.70;;;;;;5057610;28;20048;-68
2021/03/11 13:54:03;;;;;;;9.93;5.90;;;15.20;77.50;;;;;;5047296;28;20123;-68
2021/03/11 13:57:08;;;;;;;11.23;5.68;;;16.40;75.20;;;;;;5049174;28;20048;-67
2021/03/11 14:00:13;;;;;;;11.65;5.88;;;16.60;73.90;;;;;;5046044;28;20052;-67
2021/03/11 14:03:18;;;;;;;11.00;5.68;;;16.30;72.60;;;;;;5047810;28;20415;-68
2021/03/11 14:06:23;;;;;;;11.00;5.82;;;15.70;73.80;;;;;;5046019;28;20052;-68
2021/03/11 14:09:27;;;;;;;7.47;5.28;;;16.10;73.10;;;;;;5044228;28;20514;-68
2021/03/11 14:12:32;;;;;;;10.02;5.68;;;16.40;74.00;;;;;;5049555;28;20029;-68
2021/03/11 14:15:37;;;;;;;11.40;5.75;;;15.80;74.10;;;;;;5047732;28;20032;-68
2021/03/11 14:18:45;;;;;;;21.85;5.90;;;15.40;74.10;;;;;;5049431;28;20355;-67
2021/03/11 14:21:49;;;;;;;10.75;6.45;;;15.50;74.20;;;;;;5048994;28;20051;-68
2021/03/11 14:24:53;;;;;;;10.70;6.32;;;14.90;75.90;;;;;;5049217;28;20098;-68
2021/03/11 14:27:58;;;;;;;11.07;5.28;;;14.60;74.80;;;;;;5053971;28;20240;-68
2021/03/11 14:31:03;;;;;;;13.82;5.93;;;14.70;76.80;;;;;;5043506;28;20406;-67
2021/03/11 14:34:07;;;;;;;9.85;6.95;;;14.70;75.80;;;;;;5044880;28;20040;-67
2021/03/11 14:37:11;;;;;;;9.32;5.63;;;14.60;76.70;;;;;;5046123;28;20040;-67
2021/03/11 14:40:15;;;;;;;7.35;5.65;;;15.00;75.90;;;;;;5048044;28;20033;-67
2021/03/11 14:43:20;;;;;;;16.25;6.20;;;15.60;75.80;;;;;;5049703;28;20051;-66
2021/03/11 14:46:24;;;;;;;12.27;5.88;;;15.70;77.00;;;;;;5045500;28;20052;-67
2021/03/11 14:49:28;;;;;;;12.32;5.72;;;15.50;75.90;;;;;;5058602;28;20513;-68
2021/03/11 14:52:33;;;;;;;11.40;5.82;;;15.80;74.60;;;;;;5047010;28;20044;-68
2021/03/11 14:55:39;;;;;;;9.32;5.50;;;15.90;75.60;;;;;;5048203;28;20036;-68
2021/03/11 14:58:43;;;;;;;8.07;5.53;;;16.10;74.20;;;;;;5046939;28;20028;-68
2021/03/11 15:01:48;;;;;;;8.95;5.60;;;15.80;73.20;;;;;;5047316;28;20415;-68
2021/03/11 15:04:53;;;;;;;10.45;5.65;;;15.30;75.10;;;;;;5032929;28;20052;-67
2021/03/11 15:07:57;;;;;;;7.97;4.85;;;15.40;75.40;;;;;;5033052;28;20427;-67
2021/03/11 15:11:01;;;;;;;10.02;5.18;;;15.60;76.10;;;;;;5046876;28;20049;-67
2021/03/11 15:14:06;;;;;;;7.63;4.95;;;15.80;75.00;;;;;;5046421;28;20051;-67
2021/03/11 15:17:11;;;;;;;8.07;5.10;;;15.90;73.50;;;;;;5045315;28;20048;-68
2021/03/11 15:20:16;;;;;;;10.50;5.10;;;15.90;74.30;;;;;;5047608;28;20048;-68
2021/03/11 15:23:20;;;;;;;9.68;5.63;;;15.90;73.80;;;;;;5031588;28;20055;-67
2021/03/11 15:26:25;;;;;;;7.78;4.95;;;15.90;72.00;;;;;;5037918;28;20545;-67
2021/03/11 15:29:29;;;;;;;14.05;5.25;;;15.50;73.90;;;;;;5032639;28;20446;-66
2021/03/11 15:32:35;;;;;;;9.68;5.35;;;15.20;75.90;;;;;;5036327;28;20048;-67
2021/03/11 15:35:39;;;;;;;9.27;4.90;;;15.20;73.90;;;;;;5034955;28;20041;-67
2021/03/11 15:38:45;;;;;;;9.75;4.90;;;15.00;75.00;;;;;;5033897;28;20056;-66
2021/03/11 15:41:49;;;;;;;8.80;4.68;;;14.80;77.50;;;;;;5044655;28;20048;-67
2021/03/11 15:44:55;;;;;;;7.50;4.18;;;14.80;76.90;;;;;;5048550;28;20663;-67
2021/03/11 15:48:00;;;;;;;14.02;5.63;;;14.80;75.30;;;;;;5048566;28;20044;-67
2021/03/11 15:51:06;;;;;;;11.40;5.30;;;14.90;77.20;;;;;;5049670;28;20032;-67
2021/03/11 15:54:11;;;;;;;8.40;4.57;;;14.90;76.10;;;;;;5026704;28;20048;-67
2021/03/11 15:57:15;;;;;;;8.98;4.95;;;14.90;75.40;;;;;;5038218;28;20048;-67
2021/03/11 16:00:19;;;;;;;10.68;4.57;;;14.90;78.00;;;;;;5030866;28;20509;-67